Terminal Aerodrome Forecast
Issued by NWS Nashville, TN

Current Version | Previous Version | Text Only | Print | Product List | Glossary Off
Versions: 1 2 3 4 5 6 7 8 9 10 11 12 13 14 15 16 17 18 19 20 21 22 23 24 25 26 27 28 29 30 31 32 33 34

000
FTUS44 KOHX 192200 AAG
TAFBNA
TAF AMD
KBNA 192201Z 1922/2018 VRB06KT P6SM SCT090 BKN110 BKN200
     FM200300 22012KT P6SM BKN070
     FM200600 23013G20KT 4SM BR VCTS BKN020CB
     FM201200 26009KT P6SM VCSH BKN020=

USA.gov is the U.S. government's official web portal to all federal, state and local government web resources and services.